Time;durP1;ratioP1;P1;durP2;ratioP2;P2;SDS_P1;SDS_P2;PMS_P1;PMS_P2;Temp;Humidity;BMP_temperature;BMP_pressure;BME280_temperature;BME280_humidity;BME280_pressure;Samples;Min_cycle;Max_cycle;Signal;HPM_P1;HPM_P2
2022/10/22 00:00:24;;;;;;;1.83;1.20;;;15.10;99.90;;;;;;5091018;28;20584;-64
2022/10/22 00:02:52;;;;;;;3.53;1.30;;;15.10;99.90;;;;;;5086186;28;20622;-64
2022/10/22 00:05:20;;;;;;;5.20;1.33;;;15.00;99.90;;;;;;5071358;28;20622;-64
2022/10/22 00:07:48;;;;;;;1.50;1.17;;;15.00;99.90;;;;;;5071699;28;20590;-64
2022/10/22 00:10:17;;;;;;;3.57;1.20;;;15.00;99.90;;;;;;5072692;28;20650;-64
2022/10/22 00:12:45;;;;;;;1.57;1.47;;;15.00;99.90;;;;;;5072439;28;21009;-64
2022/10/22 00:15:13;;;;;;;1.53;1.43;;;15.00;99.90;;;;;;5078651;28;20614;-66
2022/10/22 00:17:44;;;;;;;2.30;1.33;;;14.90;99.90;;;;;;5092595;28;20609;-65
2022/10/22 00:20:12;;;;;;;3.37;1.57;;;14.90;99.90;;;;;;5093074;28;20582;-64
2022/10/22 00:22:40;;;;;;;2.73;1.17;;;14.90;99.90;;;;;;5092698;28;20620;-64
2022/10/22 00:25:09;;;;;;;5.53;1.40;;;14.90;99.90;;;;;;5092541;28;20624;-64
2022/10/22 00:27:38;;;;;;;2.50;1.20;;;14.80;99.90;;;;;;5092513;28;20957;-64
2022/10/22 00:30:07;;;;;;;2.47;1.40;;;14.80;99.90;;;;;;5091334;28;21261;-65
2022/10/22 00:32:35;;;;;;;1.50;1.37;;;14.80;99.90;;;;;;5091219;28;21187;-64
2022/10/22 00:35:03;;;;;;;1.43;1.13;;;14.80;99.90;;;;;;5090446;28;20625;-64
2022/10/22 00:37:31;;;;;;;4.60;1.70;;;14.80;99.90;;;;;;5078634;28;20633;-63
2022/10/22 00:39:59;;;;;;;5.00;1.43;;;14.80;99.90;;;;;;5071995;28;20615;-63
2022/10/22 00:42:29;;;;;;;1.63;1.17;;;14.70;99.90;;;;;;5073823;28;20982;-63
2022/10/22 00:45:16;;;;;;;2.20;1.30;;;14.70;99.90;;;;;;5071927;28;20622;-63
2022/10/22 00:47:49;;;;;;;1.20;1.10;;;14.70;99.90;;;;;;5073774;28;21159;-63
2022/10/22 00:50:19;;;;;;;2.83;1.40;;;14.70;99.90;;;;;;5071777;28;20652;-63
2022/10/22 00:52:48;;;;;;;1.30;1.20;;;14.60;99.90;;;;;;5088202;28;20657;-63
2022/10/22 00:55:17;;;;;;;1.63;1.43;;;14.60;99.90;;;;;;5086311;28;21143;-63
2022/10/22 00:57:46;;;;;;;1.30;1.20;;;14.60;99.90;;;;;;5077201;28;20654;-63
2022/10/22 01:00:17;;;;;;;2.37;1.33;;;14.60;99.90;;;;;;5071848;28;20629;-63
2022/10/22 01:02:45;;;;;;;1.80;1.43;;;14.50;99.90;;;;;;5071810;28;20617;-63
2022/10/22 01:05:13;;;;;;;4.30;1.30;;;14.50;99.90;;;;;;5071636;28;20979;-60
2022/10/22 01:07:44;;;;;;;1.67;1.17;;;14.50;99.90;;;;;;5075577;28;20631;-63
2022/10/22 01:10:25;;;;;;;1.40;1.30;;;14.50;99.90;;;;;;5081350;28;21033;-63
2022/10/22 01:13:05;;;;;;;3.73;1.10;;;14.50;99.90;;;;;;5095787;28;20604;-63
2022/10/22 01:15:39;;;;;;;6.53;1.20;;;14.50;99.90;;;;;;5095927;28;20888;-63
2022/10/22 01:18:10;;;;;;;1.33;1.10;;;14.50;99.90;;;;;;5095986;28;20646;-63
2022/10/22 01:20:58;;;;;;;1.90;1.37;;;14.50;99.90;;;;;;5091808;28;20989;-63
2022/10/22 01:24:02;;;;;;;1.63;0.90;;;14.50;99.90;;;;;;5080913;28;20608;-63
2022/10/22 01:26:40;;;;;;;2.40;1.30;;;14.40;99.90;;;;;;5063963;28;20640;-63
2022/10/22 01:29:14;;;;;;;1.40;1.03;;;14.40;99.90;;;;;;5095776;28;20609;-63
2022/10/22 01:31:46;;;;;;;2.80;1.50;;;14.40;99.90;;;;;;5088299;28;20926;-63
2022/10/22 01:34:17;;;;;;;3.33;1.27;;;14.40;99.90;;;;;;5075249;28;20943;-63
2022/10/22 01:36:46;;;;;;;2.93;1.20;;;14.40;99.90;;;;;;5074998;28;20596;-63
2022/10/22 01:39:16;;;;;;;2.17;1.30;;;14.40;99.90;;;;;;5080220;28;20621;-63
2022/10/22 01:41:45;;;;;;;2.03;1.10;;;14.40;99.90;;;;;;5076436;28;20618;-63
2022/10/22 01:44:26;;;;;;;1.67;1.00;;;14.40;99.90;;;;;;5075423;28;20622;-63
2022/10/22 01:47:00;;;;;;;1.53;1.40;;;14.40;99.90;;;;;;5083810;28;20611;-63
2022/10/22 01:49:38;;;;;;;0.93;0.93;;;14.40;99.90;;;;;;5084054;28;21168;-62
2022/10/22 01:52:15;;;;;;;1.30;1.00;;;14.30;99.90;;;;;;5091680;28;21010;-62
2022/10/22 01:54:49;;;;;;;3.23;1.50;;;14.30;99.90;;;;;;5085444;28;21183;-63
2022/10/22 01:57:27;;;;;;;1.47;0.83;;;14.30;99.90;;;;;;5074831;28;20663;-63
2022/10/22 02:00:02;;;;;;;1.30;0.97;;;14.30;99.90;;;;;;5077396;28;20607;-63
2022/10/22 02:02:41;;;;;;;1.70;1.00;;;14.30;99.90;;;;;;5083306;28;20661;-63
2022/10/22 02:05:14;;;;;;;8.63;1.63;;;14.30;99.90;;;;;;5094027;28;20577;-63
2022/10/22 02:07:47;;;;;;;1.40;1.10;;;14.30;99.90;;;;;;5076601;28;20605;-62
2022/10/22 02:10:17;;;;;;;1.40;0.87;;;14.30;99.90;;;;;;5073376;28;20652;-63
2022/10/22 02:12:50;;;;;;;6.37;0.90;;;14.20;99.90;;;;;;5074855;28;20585;-63
2022/10/22 02:15:22;;;;;;;2.50;0.70;;;14.20;99.90;;;;;;5074700;28;20589;-63
2022/10/22 02:17:51;;;;;;;2.10;0.57;;;14.20;99.90;;;;;;5075745;28;20582;-63
2022/10/22 02:20:23;;;;;;;1.37;0.80;;;14.20;99.90;;;;;;5094573;28;20674;-63
2022/10/22 02:22:51;;;;;;;4.47;0.70;;;14.20;99.90;;;;;;5094770;28;20638;-63
2022/10/22 02:25:21;;;;;;;0.70;0.60;;;14.20;99.90;;;;;;5094545;28;20619;-63
2022/10/22 02:27:57;;;;;;;0.70;0.70;;;14.10;99.90;;;;;;5093641;28;20580;-63
2022/10/22 02:30:26;;;;;;;2.50;0.83;;;14.00;99.90;;;;;;5094592;28;20632;-62
2022/10/22 02:33:00;;;;;;;1.00;0.90;;;14.00;99.90;;;;;;5094600;28;20663;-63
2022/10/22 02:35:29;;;;;;;1.93;0.90;;;13.90;99.90;;;;;;5093494;28;20630;-64
2022/10/22 02:37:59;;;;;;;1.47;1.20;;;13.80;99.90;;;;;;5094835;28;20632;-65
2022/10/22 02:40:30;;;;;;;3.60;1.10;;;13.80;99.90;;;;;;5091369;28;20644;-64
2022/10/22 02:42:58;;;;;;;1.67;1.03;;;13.70;99.90;;;;;;5094239;28;20589;-64
2022/10/22 02:45:27;;;;;;;0.80;0.80;;;13.80;99.90;;;;;;5093876;28;20600;-63
2022/10/22 02:47:55;;;;;;;1.70;1.20;;;13.70;99.90;;;;;;5075626;28;21172;-63
2022/10/22 02:50:23;;;;;;;2.60;1.30;;;13.70;99.90;;;;;;5073974;28;20968;-63
2022/10/22 02:52:51;;;;;;;2.80;1.10;;;13.70;99.90;;;;;;5074138;28;20632;-64
2022/10/22 02:55:19;;;;;;;2.47;1.43;;;13.70;99.90;;;;;;5085346;28;20670;-63
2022/10/22 02:57:46;;;;;;;3.57;1.60;;;13.70;99.90;;;;;;5073788;28;20624;-63
2022/10/22 03:00:15;;;;;;;9.10;1.77;;;13.70;99.90;;;;;;5079630;28;20964;-63
2022/10/22 03:02:44;;;;;;;3.23;1.57;;;13.70;99.90;;;;;;5082674;28;20608;-63
2022/10/22 03:05:13;;;;;;;3.77;1.67;;;13.70;99.90;;;;;;5092599;28;21162;-63
2022/10/22 03:07:41;;;;;;;7.13;1.77;;;13.70;99.90;;;;;;5092953;28;20600;-63
2022/10/22 03:10:10;;;;;;;1.67;1.47;;;13.70;99.90;;;;;;5090814;28;20625;-63
2022/10/22 03:12:37;;;;;;;3.70;1.13;;;13.70;99.90;;;;;;5092460;28;21253;-63
2022/10/22 03:15:06;;;;;;;1.57;1.30;;;13.70;99.90;;;;;;5093124;28;21036;-63
2022/10/22 03:17:34;;;;;;;2.37;1.20;;;13.70;99.90;;;;;;5094181;28;20600;-63
2022/10/22 03:20:04;;;;;;;1.77;1.67;;;13.80;99.90;;;;;;5092293;28;20633;-63
2022/10/22 03:22:34;;;;;;;3.17;1.63;;;13.80;99.90;;;;;;5074961;28;20615;-63
2022/10/22 03:25:07;;;;;;;3.33;2.13;;;13.70;99.90;;;;;;5086311;28;20627;-64
2022/10/22 03:27:36;;;;;;;1.40;1.30;;;13.70;99.90;;;;;;5088466;28;20576;-63
2022/10/22 03:30:06;;;;;;;5.07;2.10;;;13.70;99.90;;;;;;5085381;28;20600;-63
2022/10/22 03:32:33;;;;;;;2.70;1.50;;;13.70;99.90;;;;;;5078292;28;20720;-63
2022/10/22 03:35:04;;;;;;;3.90;1.80;;;13.70;99.90;;;;;;5073018;28;21207;-64
2022/10/22 03:37:33;;;;;;;4.27;2.07;;;13.60;99.90;;;;;;5073415;28;21164;-63
2022/10/22 03:40:01;;;;;;;1.83;1.73;;;13.60;99.90;;;;;;5082593;28;20647;-63
2022/10/22 03:42:29;;;;;;;4.60;1.83;;;13.60;99.90;;;;;;5086835;28;21184;-63
2022/10/22 03:44:57;;;;;;;2.50;1.97;;;13.50;99.90;;;;;;5091879;28;20612;-63
2022/10/22 03:47:26;;;;;;;1.60;1.50;;;13.50;99.90;;;;;;5091147;28;21008;-63
2022/10/22 03:49:54;;;;;;;2.93;1.67;;;13.50;99.90;;;;;;5092216;28;20622;-63
2022/10/22 03:52:23;;;;;;;1.67;1.57;;;13.50;99.90;;;;;;5074908;28;20654;-63
2022/10/22 03:54:51;;;;;;;2.37;1.40;;;13.40;99.90;;;;;;5090966;28;21182;-65
2022/10/22 03:57:19;;;;;;;5.50;1.70;;;13.40;99.90;;;;;;5080981;28;20657;-63
2022/10/22 03:59:47;;;;;;;4.87;1.87;;;13.40;99.90;;;;;;5093462;28;20587;-63
2022/10/22 04:02:15;;;;;;;13.87;2.60;;;13.40;99.90;;;;;;5083634;28;20600;-63
2022/10/22 04:04:43;;;;;;;4.23;2.90;;;13.40;99.90;;;;;;5071940;28;21237;-63
2022/10/22 04:07:10;;;;;;;8.53;2.70;;;13.50;99.90;;;;;;5083090;28;21209;-64
2022/10/22 04:09:40;;;;;;;4.80;3.30;;;13.40;99.90;;;;;;5091901;28;20588;-64
2022/10/22 04:12:08;;;;;;;3.20;2.80;;;13.40;99.90;;;;;;5092474;28;20675;-63
2022/10/22 04:14:36;;;;;;;4.07;2.97;;;13.40;99.90;;;;;;5092972;28;20986;-63
2022/10/22 04:17:04;;;;;;;2.90;2.70;;;13.40;99.90;;;;;;5092298;28;20986;-63
2022/10/22 04:19:32;;;;;;;3.37;2.13;;;13.40;99.90;;;;;;5080103;28;21200;-63
2022/10/22 04:22:00;;;;;;;2.57;2.37;;;13.40;99.90;;;;;;5072250;28;20639;-62
2022/10/22 04:24:30;;;;;;;2.80;2.63;;;13.40;99.90;;;;;;5072503;28;20610;-62
2022/10/22 04:26:59;;;;;;;2.37;2.20;;;13.40;99.90;;;;;;5072804;28;21008;-64
2022/10/22 04:29:27;;;;;;;2.10;1.93;;;13.40;99.90;;;;;;5071968;28;20592;-63
2022/10/22 04:31:55;;;;;;;2.57;2.40;;;13.30;99.90;;;;;;5072225;28;21263;-62
2022/10/22 04:34:23;;;;;;;6.20;1.97;;;13.40;99.90;;;;;;5072214;28;20610;-62
2022/10/22 04:36:50;;;;;;;2.20;2.00;;;13.30;99.90;;;;;;5082707;28;21186;-63
2022/10/22 04:39:18;;;;;;;5.80;2.00;;;13.30;99.90;;;;;;5092033;28;20626;-63
2022/10/22 04:41:46;;;;;;;2.97;2.10;;;13.30;99.90;;;;;;5091672;28;20603;-64
2022/10/22 04:44:16;;;;;;;1.80;1.70;;;13.30;99.90;;;;;;5083255;28;20621;-63
2022/10/22 04:46:44;;;;;;;1.80;1.70;;;13.30;99.90;;;;;;5072472;28;20630;-63
2022/10/22 04:49:12;;;;;;;3.70;2.37;;;13.30;99.90;;;;;;5081034;28;21022;-64
2022/10/22 04:51:39;;;;;;;4.50;1.93;;;13.30;99.90;;;;;;5080836;28;20642;-63
2022/10/22 04:54:07;;;;;;;2.60;1.83;;;13.30;99.90;;;;;;5091385;28;20631;-63
2022/10/22 04:56:35;;;;;;;1.90;1.80;;;13.30;99.90;;;;;;5078723;28;20654;-63
2022/10/22 04:59:05;;;;;;;1.63;1.53;;;13.30;99.90;;;;;;5092473;28;20613;-63
2022/10/22 05:01:36;;;;;;;2.93;2.20;;;13.20;99.90;;;;;;5086758;28;20981;-63
2022/10/22 05:04:05;;;;;;;6.10;2.30;;;13.20;99.90;;;;;;5090850;28;21198;-63
2022/10/22 05:06:35;;;;;;;3.90;2.53;;;13.20;99.90;;;;;;5073246;28;21163;-63
2022/10/22 05:09:05;;;;;;;2.03;1.93;;;13.20;99.90;;;;;;5082701;28;20621;-63
2022/10/22 05:11:35;;;;;;;2.27;2.07;;;13.20;99.90;;;;;;5082823;28;20659;-63
2022/10/22 05:14:08;;;;;;;3.00;2.20;;;13.20;99.90;;;;;;5083516;28;20632;-63
2022/10/22 05:16:38;;;;;;;3.77;1.90;;;13.20;99.90;;;;;;5087851;28;20659;-63
2022/10/22 05:19:07;;;;;;;2.33;2.23;;;13.10;99.90;;;;;;5091434;28;20608;-63
2022/10/22 05:21:35;;;;;;;4.80;2.07;;;13.10;99.90;;;;;;5089881;28;20994;-63
2022/10/22 05:24:03;;;;;;;2.37;2.17;;;13.10;99.90;;;;;;5091687;28;20596;-62
2022/10/22 05:26:31;;;;;;;1.97;1.87;;;13.10;99.90;;;;;;5089493;28;20626;-63
2022/10/22 05:28:59;;;;;;;2.40;2.20;;;13.10;99.90;;;;;;5079223;28;20639;-63
2022/10/22 05:31:28;;;;;;;2.57;2.47;;;13.00;99.90;;;;;;5090731;28;20644;-63
2022/10/22 05:33:57;;;;;;;5.53;2.70;;;13.00;99.90;;;;;;5090450;28;20644;-63
2022/10/22 05:36:28;;;;;;;4.93;2.57;;;12.90;99.90;;;;;;5083481;28;20632;-63
2022/10/22 05:38:57;;;;;;;5.23;2.60;;;12.90;99.90;;;;;;5084515;28;20572;-63
2022/10/22 05:41:27;;;;;;;2.77;2.57;;;12.90;99.90;;;;;;5081280;28;20608;-63
2022/10/22 05:43:56;;;;;;;2.93;2.70;;;12.90;99.90;;;;;;5076532;28;21199;-64
2022/10/22 05:46:25;;;;;;;3.40;3.10;;;12.90;99.90;;;;;;5083269;28;20638;-63
2022/10/22 05:48:55;;;;;;;3.03;2.73;;;12.90;99.90;;;;;;5090445;28;20628;-63
2022/10/22 05:51:25;;;;;;;4.27;2.80;;;12.80;99.90;;;;;;5085904;28;21196;-63
2022/10/22 05:53:54;;;;;;;3.53;2.60;;;12.80;99.90;;;;;;5077155;28;21042;-63
2022/10/22 05:56:23;;;;;;;3.80;3.50;;;12.80;99.90;;;;;;5093246;28;21035;-64
2022/10/22 05:58:51;;;;;;;3.17;2.83;;;12.80;99.90;;;;;;5083056;28;20605;-63
2022/10/22 06:01:21;;;;;;;4.73;2.90;;;12.80;99.90;;;;;;5082302;28;21198;-63
2022/10/22 06:03:49;;;;;;;4.07;2.90;;;12.80;99.90;;;;;;5082803;28;20612;-63
2022/10/22 06:06:21;;;;;;;5.40;3.07;;;12.80;99.90;;;;;;5084800;28;20592;-63
2022/10/22 06:08:52;;;;;;;3.20;2.63;;;12.80;99.90;;;;;;5082632;28;20952;-63
2022/10/22 06:11:21;;;;;;;3.20;2.90;;;12.80;99.90;;;;;;5081812;28;20621;-63
2022/10/22 06:13:50;;;;;;;4.20;2.50;;;12.80;99.90;;;;;;5082863;28;20665;-63
2022/10/22 06:16:18;;;;;;;2.83;2.50;;;12.80;99.90;;;;;;5083100;28;21140;-63
2022/10/22 06:18:46;;;;;;;2.73;2.60;;;12.80;99.90;;;;;;5074858;28;20628;-63
2022/10/22 06:21:16;;;;;;;3.27;2.97;;;12.80;99.90;;;;;;5074818;28;21024;-63
2022/10/22 06:23:44;;;;;;;3.63;2.67;;;12.80;99.90;;;;;;5056751;28;20622;-63
2022/10/22 06:26:14;;;;;;;4.63;2.47;;;12.80;99.90;;;;;;5091258;28;21112;-63
2022/10/22 06:28:42;;;;;;;2.20;2.10;;;12.80;99.90;;;;;;5094764;28;20997;-62
2022/10/22 06:31:10;;;;;;;2.30;2.10;;;12.90;99.90;;;;;;5074763;28;20622;-62
2022/10/22 06:33:42;;;;;;;3.30;2.43;;;12.90;99.90;;;;;;5075587;28;20662;-63
2022/10/22 06:36:12;;;;;;;3.73;2.27;;;12.90;99.90;;;;;;5074340;28;20570;-63
2022/10/22 06:38:40;;;;;;;2.33;2.13;;;12.90;99.90;;;;;;5083016;28;20636;-62
2022/10/22 06:41:09;;;;;;;2.07;1.87;;;13.00;99.90;;;;;;5094239;28;20986;-62
2022/10/22 06:43:39;;;;;;;3.10;1.90;;;13.00;99.90;;;;;;5084915;28;20608;-62
2022/10/22 06:46:09;;;;;;;2.20;2.00;;;13.00;99.90;;;;;;5073649;28;21063;-62
2022/10/22 06:48:39;;;;;;;2.87;2.10;;;13.00;99.90;;;;;;5078850;28;20588;-62
2022/10/22 06:51:08;;;;;;;7.53;2.07;;;13.10;99.90;;;;;;5093913;28;20971;-62
2022/10/22 06:53:37;;;;;;;3.63;1.60;;;13.20;99.90;;;;;;5093360;28;21048;-62
2022/10/22 06:56:06;;;;;;;1.67;1.57;;;13.20;99.90;;;;;;5094213;28;20616;-62
2022/10/22 06:58:34;;;;;;;4.27;1.90;;;13.30;99.90;;;;;;5094345;28;20637;-62
2022/10/22 07:01:06;;;;;;;2.17;1.13;;;13.30;99.90;;;;;;5093127;28;20609;-62
2022/10/22 07:03:37;;;;;;;1.83;1.20;;;13.30;99.90;;;;;;5083330;28;20619;-63
2022/10/22 07:06:07;;;;;;;3.63;1.50;;;13.30;99.90;;;;;;5080089;28;20587;-63
2022/10/22 07:08:35;;;;;;;2.80;2.00;;;13.40;99.90;;;;;;5092601;28;20629;-62
2022/10/22 07:11:07;;;;;;;2.83;1.63;;;13.40;99.90;;;;;;5092649;28;20982;-62
2022/10/22 07:13:35;;;;;;;2.73;1.30;;;13.40;99.90;;;;;;5084828;28;21200;-62
2022/10/22 07:16:05;;;;;;;2.27;1.60;;;13.40;99.90;;;;;;5084899;28;20649;-63
2022/10/22 07:18:34;;;;;;;2.13;1.50;;;13.50;99.90;;;;;;5093789;28;20586;-63
2022/10/22 07:21:03;;;;;;;2.43;2.17;;;13.50;99.90;;;;;;5077396;28;20605;-62
2022/10/22 07:23:31;;;;;;;3.50;2.10;;;13.50;99.90;;;;;;5088992;28;20686;-62
2022/10/22 07:26:01;;;;;;;2.07;1.90;;;13.60;99.90;;;;;;5083437;28;20959;-63
2022/10/22 07:28:29;;;;;;;2.20;2.07;;;13.70;99.90;;;;;;5089124;28;20604;-62
2022/10/22 07:30:57;;;;;;;1.80;1.70;;;13.80;99.90;;;;;;5092116;28;20621;-62
2022/10/22 07:33:27;;;;;;;1.23;1.13;;;13.80;99.90;;;;;;5087019;28;20718;-63
2022/10/22 07:35:59;;;;;;;1.10;1.00;;;13.90;99.90;;;;;;5089271;28;20630;-62
2022/10/22 07:38:28;;;;;;;5.73;1.30;;;13.90;99.90;;;;;;5083531;28;20665;-62
2022/10/22 07:40:56;;;;;;;1.40;1.30;;;14.00;99.90;;;;;;5083887;28;20593;-63
2022/10/22 07:43:25;;;;;;;2.70;1.37;;;14.10;99.90;;;;;;5083760;28;20622;-62
2022/10/22 07:45:54;;;;;;;1.30;1.20;;;14.10;99.90;;;;;;5084659;28;20607;-62
2022/10/22 07:48:23;;;;;;;1.30;1.20;;;14.20;99.90;;;;;;5089206;28;21261;-63
2022/10/22 07:50:52;;;;;;;2.60;0.90;;;14.20;99.90;;;;;;5091481;28;20607;-63
2022/10/22 07:53:21;;;;;;;2.27;1.60;;;14.20;99.90;;;;;;5089312;28;21016;-62
2022/10/22 07:55:49;;;;;;;1.00;1.00;;;14.20;99.90;;;;;;5092437;28;20591;-62
2022/10/22 07:58:18;;;;;;;2.70;1.70;;;14.20;99.90;;;;;;5073819;28;20672;-63
2022/10/22 08:00:46;;;;;;;2.67;1.60;;;14.20;99.90;;;;;;5075158;28;21158;-63
2022/10/22 08:03:16;;;;;;;1.43;1.33;;;14.30;99.90;;;;;;5074190;28;20622;-62
2022/10/22 08:05:44;;;;;;;3.20;1.87;;;14.20;99.90;;;;;;5072668;28;20634;-63
2022/10/22 08:08:16;;;;;;;4.80;2.17;;;14.10;99.90;;;;;;5074304;28;20612;-62
2022/10/22 08:10:44;;;;;;;1.83;1.73;;;14.00;99.90;;;;;;5077773;28;20575;-62
2022/10/22 08:13:12;;;;;;;1.80;1.70;;;14.00;99.90;;;;;;5080321;28;20639;-62
2022/10/22 08:15:40;;;;;;;3.10;1.60;;;14.00;99.90;;;;;;5078943;28;20600;-63
2022/10/22 08:18:08;;;;;;;1.80;1.40;;;14.00;99.90;;;;;;5087790;28;20601;-62
2022/10/22 08:20:36;;;;;;;2.37;1.73;;;14.10;99.90;;;;;;5089673;28;20600;-62
2022/10/22 08:23:04;;;;;;;1.50;1.40;;;14.10;99.90;;;;;;5076208;28;20632;-63
2022/10/22 08:25:33;;;;;;;2.20;1.50;;;14.20;99.90;;;;;;5077116;28;20626;-63
2022/10/22 08:28:01;;;;;;;6.13;1.70;;;14.30;99.90;;;;;;5078114;28;20577;-63
2022/10/22 08:30:29;;;;;;;1.80;1.70;;;14.40;99.90;;;;;;5086509;28;20621;-63
2022/10/22 08:32:57;;;;;;;2.80;1.63;;;14.40;99.90;;;;;;5083804;28;20603;-63
2022/10/22 08:35:25;;;;;;;1.63;1.53;;;14.40;99.90;;;;;;5082524;28;20959;-64
2022/10/22 08:37:53;;;;;;;1.50;1.40;;;14.40;99.90;;;;;;5086616;28;21193;-63
2022/10/22 08:40:25;;;;;;;1.53;1.43;;;14.50;99.90;;;;;;5090760;28;20629;-63
2022/10/22 08:43:23;;;;;;;1.93;1.73;;;14.60;99.90;;;;;;5092153;28;20613;-63
2022/10/22 08:46:06;;;;;;;1.40;1.30;;;14.80;99.90;;;;;;5090949;28;20637;-63
2022/10/22 08:48:45;;;;;;;1.20;1.10;;;14.80;99.90;;;;;;5091793;28;20616;-63
2022/10/22 08:51:17;;;;;;;1.80;1.70;;;14.90;99.90;;;;;;5092209;28;20636;-63
2022/10/22 08:54:08;;;;;;;2.03;1.40;;;14.90;99.90;;;;;;5091358;28;20733;-63
2022/10/22 08:56:38;;;;;;;1.33;1.23;;;15.10;99.90;;;;;;5092501;28;20657;-63
2022/10/22 08:59:14;;;;;;;2.80;1.60;;;15.30;99.90;;;;;;5091352;28;20606;-63
2022/10/22 09:01:46;;;;;;;1.03;0.80;;;15.20;99.90;;;;;;5091705;28;20572;-63
2022/10/22 09:04:24;;;;;;;1.97;1.20;;;15.30;99.90;;;;;;5086385;28;20609;-64
2022/10/22 09:06:53;;;;;;;1.17;1.10;;;15.40;99.90;;;;;;5091772;28;20601;-63
2022/10/22 09:09:21;;;;;;;2.47;1.30;;;15.40;99.90;;;;;;5091520;28;20934;-63
2022/10/22 09:11:51;;;;;;;2.10;1.40;;;15.40;99.90;;;;;;5077779;28;20609;-63
2022/10/22 09:14:23;;;;;;;1.77;1.30;;;15.40;99.90;;;;;;5091840;28;20664;-63
2022/10/22 09:17:12;;;;;;;3.93;1.73;;;15.50;99.90;;;;;;5092033;28;20594;-64
2022/10/22 09:19:55;;;;;;;1.53;1.43;;;15.50;99.90;;;;;;5091363;28;20615;-63
2022/10/22 09:22:32;;;;;;;1.07;0.80;;;15.60;99.90;;;;;;5091737;28;20578;-63
2022/10/22 09:25:16;;;;;;;1.77;1.13;;;15.70;99.90;;;;;;5091593;28;21166;-64
2022/10/22 09:27:44;;;;;;;4.00;1.47;;;15.80;99.90;;;;;;5094105;28;20617;-63
2022/10/22 09:30:17;;;;;;;1.40;1.20;;;15.90;99.90;;;;;;5092022;28;20611;-63
2022/10/22 09:32:45;;;;;;;6.67;1.13;;;15.90;99.90;;;;;;5082623;28;21217;-63
2022/10/22 09:35:14;;;;;;;1.30;1.20;;;16.00;99.90;;;;;;5092432;28;21249;-63
2022/10/22 09:37:50;;;;;;;1.97;1.10;;;16.00;99.90;;;;;;5092104;28;20617;-63
2022/10/22 09:40:18;;;;;;;5.70;1.97;;;16.30;99.90;;;;;;5092393;28;20575;-63
2022/10/22 09:42:47;;;;;;;1.23;1.00;;;16.30;99.90;;;;;;5094885;28;20637;-63
2022/10/22 09:45:23;;;;;;;1.47;1.10;;;16.30;99.90;;;;;;5095594;28;20613;-63
2022/10/22 09:48:02;;;;;;;1.17;0.90;;;16.40;99.90;;;;;;5093287;28;20583;-63
2022/10/22 09:50:43;;;;;;;5.03;2.10;;;16.40;99.90;;;;;;5085518;28;20689;-63
2022/10/22 09:53:20;;;;;;;2.00;1.00;;;16.40;99.90;;;;;;5080619;28;20999;-63
2022/10/22 09:55:53;;;;;;;2.90;1.27;;;16.50;99.90;;;;;;5088086;28;21221;-63
2022/10/22 09:58:21;;;;;;;2.60;1.30;;;16.70;99.90;;;;;;5084513;28;20609;-63
2022/10/22 10:00:54;;;;;;;3.67;1.70;;;16.70;99.90;;;;;;5094878;28;20635;-65
2022/10/22 10:03:24;;;;;;;3.83;1.07;;;16.80;99.90;;;;;;5091611;28;21173;-63
2022/10/22 10:05:54;;;;;;;1.50;1.13;;;16.70;99.90;;;;;;5094989;28;20617;-64
2022/10/22 10:08:22;;;;;;;1.50;1.03;;;16.90;99.90;;;;;;5089933;28;20631;-64
2022/10/22 10:10:55;;;;;;;1.20;1.00;;;16.90;99.90;;;;;;5080785;28;21122;-64
2022/10/22 10:13:39;;;;;;;2.47;1.87;;;17.10;99.90;;;;;;5086797;28;20613;-64
2022/10/22 10:16:15;;;;;;;6.93;1.63;;;17.10;99.90;;;;;;5083150;28;20668;-63
2022/10/22 10:19:01;;;;;;;1.40;1.30;;;17.10;99.90;;;;;;5077885;28;21218;-63
2022/10/22 10:21:38;;;;;;;5.90;1.50;;;17.10;99.90;;;;;;5074959;28;21163;-63
2022/10/22 10:24:19;;;;;;;1.43;1.10;;;17.40;99.90;;;;;;5089018;28;20606;-63
2022/10/22 10:26:54;;;;;;;2.40;1.43;;;17.60;99.90;;;;;;5074694;28;20678;-63
2022/10/22 10:29:39;;;;;;;4.53;1.50;;;17.50;99.90;;;;;;5084721;28;20627;-64
2022/10/22 10:32:24;;;;;;;2.70;1.30;;;17.70;99.90;;;;;;5078148;28;20601;-64
2022/10/22 10:35:00;;;;;;;2.23;1.40;;;17.70;99.90;;;;;;5094868;28;20624;-63
2022/10/22 10:37:33;;;;;;;3.33;2.80;;;17.60;99.90;;;;;;5086030;28;20609;-64
2022/10/22 10:40:14;;;;;;;1.77;1.50;;;17.90;99.90;;;;;;5090392;28;20643;-64
2022/10/22 10:42:49;;;;;;;2.60;2.40;;;18.30;99.90;;;;;;5093358;28;20608;-63
2022/10/22 10:45:20;;;;;;;4.70;1.90;;;18.40;99.90;;;;;;5095125;28;20581;-63
2022/10/22 10:48:21;;;;;;;2.90;2.13;;;18.30;99.90;;;;;;5093863;28;20616;-63
2022/10/22 10:50:56;;;;;;;3.27;2.00;;;18.30;99.90;;;;;;5073829;28;20586;-63
2022/10/22 10:53:37;;;;;;;6.53;2.70;;;18.80;99.90;;;;;;5088962;28;20743;-63
2022/10/22 10:56:11;;;;;;;2.83;1.73;;;18.90;99.90;;;;;;5093462;28;20673;-65
2022/10/22 10:58:51;;;;;;;4.60;1.50;;;18.90;99.90;;;;;;5088635;28;20606;-68
2022/10/22 11:01:24;;;;;;;3.83;1.00;;;19.20;99.90;;;;;;5075157;28;20578;-65
2022/10/22 11:04:31;;;;;;;2.87;1.40;;;19.10;99.90;;;;;;5091128;28;20936;-65
2022/10/22 11:07:03;;;;;;;1.73;1.40;;;19.60;99.90;;;;;;5077860;28;20628;-65
2022/10/22 11:09:37;;;;;;;4.40;2.30;;;20.60;99.90;;;;;;5093415;28;20637;-65
2022/10/22 11:12:12;;;;;;;3.17;1.47;;;20.30;99.90;;;;;;5092317;28;20606;-65
2022/10/22 11:14:51;;;;;;;4.07;1.50;;;20.20;99.90;;;;;;5093970;28;21019;-65
2022/10/22 11:17:22;;;;;;;3.17;1.13;;;20.20;99.90;;;;;;5074096;28;20599;-65
2022/10/22 11:19:59;;;;;;;5.93;1.27;;;20.40;99.90;;;;;;5074525;28;20614;-65
2022/10/22 11:22:32;;;;;;;6.07;1.80;;;20.70;99.90;;;;;;5080207;28;20597;-63
2022/10/22 11:25:04;;;;;;;3.77;1.50;;;20.40;99.90;;;;;;5093304;28;20597;-63
2022/10/22 11:27:37;;;;;;;1.83;1.43;;;20.70;99.90;;;;;;5079423;28;21028;-63
2022/10/22 11:30:12;;;;;;;2.30;1.20;;;21.70;99.90;;;;;;5088188;28;20618;-64
2022/10/22 11:32:42;;;;;;;3.50;1.67;;;21.60;99.90;;;;;;5073980;28;21115;-64
2022/10/22 11:35:16;;;;;;;4.00;1.50;;;21.50;99.90;;;;;;5087063;28;20703;-64
2022/10/22 11:37:46;;;;;;;2.50;1.20;;;21.20;99.90;;;;;;5081779;28;20601;-64
2022/10/22 11:40:19;;;;;;;2.77;1.30;;;21.00;99.90;;;;;;5094895;28;20589;-64
2022/10/22 11:42:52;;;;;;;3.40;1.33;;;21.30;99.90;;;;;;5081792;28;20590;-64
2022/10/22 11:45:31;;;;;;;2.90;1.30;;;21.70;99.90;;;;;;5075744;28;20605;-64
2022/10/22 11:48:06;;;;;;;2.00;1.50;;;21.40;99.90;;;;;;5074485;28;20582;-64
2022/10/22 11:50:49;;;;;;;4.10;1.70;;;21.80;99.90;;;;;;5080642;28;20686;-65
2022/10/22 11:53:21;;;;;;;2.83;1.40;;;22.10;99.90;;;;;;5093006;28;21285;-64
2022/10/22 11:55:50;;;;;;;1.70;1.60;;;22.50;99.90;;;;;;5094527;28;20663;-64
2022/10/22 11:58:31;;;;;;;2.37;1.37;;;22.00;99.90;;;;;;5094439;28;20652;-64
2022/10/22 12:01:21;;;;;;;1.57;1.47;;;21.70;99.90;;;;;;5084109;28;20618;-64
2022/10/22 12:03:51;;;;;;;5.23;1.40;;;22.10;99.90;;;;;;5089047;28;21194;-64
2022/10/22 12:06:23;;;;;;;4.33;1.90;;;22.20;99.90;;;;;;5074334;28;20579;-64
2022/10/22 12:08:58;;;;;;;3.13;1.90;;;22.60;99.90;;;;;;5075296;28;20606;-64
2022/10/22 12:11:28;;;;;;;1.43;1.33;;;22.70;99.90;;;;;;5088068;28;20609;-64
2022/10/22 12:14:03;;;;;;;2.03;1.83;;;22.90;99.90;;;;;;5089832;28;20632;-64
2022/10/22 12:16:38;;;;;;;2.60;1.80;;;22.70;99.90;;;;;;5087681;28;20645;-64
2022/10/22 12:19:14;;;;;;;6.30;2.33;;;22.80;99.90;;;;;;5083898;28;20672;-64
2022/10/22 12:21:48;;;;;;;6.83;2.10;;;22.80;99.90;;;;;;5084770;28;20959;-64
2022/10/22 12:24:20;;;;;;;2.17;1.60;;;23.30;99.90;;;;;;5090807;28;20635;-65
2022/10/22 12:26:51;;;;;;;5.90;2.10;;;22.60;99.90;;;;;;5090484;28;21148;-64
2022/10/22 12:29:22;;;;;;;2.63;1.80;;;22.60;99.90;;;;;;5093804;28;20620;-65
2022/10/22 12:31:53;;;;;;;2.57;2.00;;;23.00;99.90;;;;;;5093394;28;20624;-65
2022/10/22 12:34:23;;;;;;;2.17;2.07;;;23.10;99.90;;;;;;5090400;28;20625;-65
2022/10/22 12:36:53;;;;;;;2.63;2.43;;;23.10;99.90;;;;;;5076148;28;20653;-65
2022/10/22 12:39:25;;;;;;;2.60;2.40;;;23.60;99.90;;;;;;5090627;28;20975;-65
2022/10/22 12:41:53;;;;;;;4.43;2.43;;;22.90;99.90;;;;;;5093227;28;21296;-64
2022/10/22 12:44:21;;;;;;;6.73;2.60;;;22.70;99.90;;;;;;5094602;28;21238;-63
2022/10/22 12:46:50;;;;;;;1.70;1.60;;;22.90;99.90;;;;;;5094420;28;20609;-64
2022/10/22 12:49:22;;;;;;;3.10;1.90;;;22.90;99.90;;;;;;5092421;28;20613;-63
2022/10/22 12:51:52;;;;;;;2.40;2.20;;;23.00;99.90;;;;;;5088469;28;20666;-64
2022/10/22 12:54:25;;;;;;;3.33;1.90;;;23.00;99.90;;;;;;5087100;28;20671;-63
2022/10/22 12:56:55;;;;;;;4.03;2.40;;;23.60;99.90;;;;;;5093359;28;20745;-63
2022/10/22 12:59:25;;;;;;;5.53;2.50;;;23.80;99.90;;;;;;5090532;28;20980;-63
2022/10/22 13:01:54;;;;;;;4.40;2.37;;;23.40;99.90;;;;;;5094417;28;20678;-63
2022/10/22 13:04:32;;;;;;;2.83;2.10;;;23.30;99.90;;;;;;5084692;28;20626;-64
2022/10/22 13:07:16;;;;;;;2.90;2.60;;;23.00;99.90;;;;;;5078960;28;20618;-63
2022/10/22 13:09:46;;;;;;;5.23;2.20;;;23.10;99.90;;;;;;5087019;28;20662;-63